Time;durP1;ratioP1;P1;durP2;ratioP2;P2;SDS_P1;SDS_P2;PMS_P1;PMS_P2;Temp;Humidity;BMP_temperature;BMP_pressure;BME280_temperature;BME280_humidity;BME280_pressure;Samples;Min_cycle;Max_cycle;Signal;HPM_P1;HPM_P2
2023/11/19 16:26:32;;;;;;;1999.90;999.90;;;;;;;;;;5067633;28;20399;-66
2023/11/19 16:29:01;;;;;;;1999.90;999.90;;;;;;;;;;5067310;28;20430;-68
2023/11/19 16:31:27;;;;;;;1999.90;999.90;;;;;;;;;;5067591;28;20465;-78
2023/11/19 16:33:53;;;;;;;1999.90;999.90;;;;;;;;;;5067612;28;20060;-72
2023/11/19 16:36:19;;;;;;;1999.90;999.90;;;;;;;;;;5067790;28;20100;-67
2023/11/19 16:38:48;;;;;;;1999.90;999.90;;;;;;;;;;5067579;28;20029;-69
2023/11/19 16:41:21;;;;;;;1999.90;999.90;;;;;;;;;;5067038;28;20028;-75
2023/11/19 16:43:48;;;;;;;1999.90;999.90;;;;;;;;;;5067345;28;20044;-72
2023/11/19 16:46:15;;;;;;;1999.90;999.90;;;;;;;;;;5060431;28;20041;-70
2023/11/19 16:48:41;;;;;;;1999.90;999.90;;;;;;;;;;5049293;28;20404;-66
2023/11/19 16:51:13;;;;;;;1999.90;999.90;;;;;;;;;;5046543;28;20554;-65
2023/11/19 16:53:45;;;;;;;1999.90;999.90;;;;;;;;;;5054986;28;20028;-71
2023/11/19 16:56:11;;;;;;;1999.90;999.90;;;;;;;;;;5056422;28;20040;-65
2023/11/19 16:58:37;;;;;;;1999.90;999.90;;;;;;;;;;5056885;28;20021;-66
2023/11/19 17:01:03;;;;;;;1999.90;999.90;;;;;;;;;;5057881;28;20036;-72
2023/11/19 17:03:29;;;;;;;1999.90;999.90;;;;;;;;;;5055145;28;20485;-67
2023/11/19 17:05:55;;;;;;;1999.90;999.90;;;;;;;;;;5056398;28;20548;-66
2023/11/19 17:08:21;;;;;;;1999.90;999.90;;;;;;;;;;5055467;28;20029;-72
2023/11/19 17:10:49;;;;;;;1999.90;999.90;;;;;;;;;;5056623;28;20115;-72
2023/11/19 17:13:15;;;;;;;1999.90;999.90;;;;;;;;;;5056566;28;20013;-67
2023/11/19 17:15:41;;;;;;;1999.90;999.90;;;;;;;;;;5055838;28;20032;-70
2023/11/19 17:18:07;;;;;;;1999.90;999.90;;;;;;;;;;5055306;28;20025;-70
2023/11/19 17:20:37;;;;;;;1999.90;999.90;;;;;;;;;;5066685;28;20472;-66
2023/11/19 17:23:04;;;;;;;1999.90;999.90;;;;;;;;;;5066452;28;20017;-67
2023/11/19 17:25:31;;;;;;;1999.90;999.90;;;;;;;;;;5066258;28;20057;-75
2023/11/19 17:27:57;;;;;;;1999.90;999.90;;;;;;;;;;5066585;28;20025;-74
2023/11/19 17:30:23;;;;;;;1999.90;999.90;;;;;;;;;;5066020;28;20056;-66
2023/11/19 17:32:49;;;;;;;1999.90;999.90;;;;;;;;;;5066791;28;20028;-67
2023/11/19 17:35:15;;;;;;;1999.90;999.90;;;;;;;;;;5066334;28;20028;-75
2023/11/19 17:37:41;;;;;;;1999.90;999.90;;;;;;;;;;5054169;28;20064;-66
2023/11/19 17:40:10;;;;;;;1999.90;999.90;;;;;;;;;;5052606;28;20480;-75
2023/11/19 17:42:37;;;;;;;1999.90;999.90;;;;;;;;;;5052791;28;20408;-69
2023/11/19 17:45:05;;;;;;;1999.90;999.90;;;;;;;;;;5052683;28;20450;-66
2023/11/19 17:47:32;;;;;;;1999.90;999.90;;;;;;;;;;5052834;28;20454;-71
2023/11/19 17:49:58;;;;;;;1999.90;999.90;;;;;;;;;;5052633;28;20112;-69
2023/11/19 17:52:24;;;;;;;1999.90;999.90;;;;;;;;;;5052822;28;20033;-67
2023/11/19 17:54:50;;;;;;;1999.90;999.90;;;;;;;;;;5052916;28;20041;-73
2023/11/19 17:57:16;;;;;;;1999.90;999.90;;;;;;;;;;5052622;28;20511;-76
2023/11/19 17:59:42;;;;;;;1999.90;999.90;;;;;;;;;;5052730;28;20502;-67
2023/11/19 18:02:09;;;;;;;1999.90;999.90;;;;;;;;;;5052822;28;20075;-69
2023/11/19 18:04:37;;;;;;;1999.90;999.90;;;;;;;;;;5052776;28;20037;-68
2023/11/19 18:07:03;;;;;;;1999.90;999.90;;;;;;;;;;5052763;28;20025;-66
2023/11/19 18:09:30;;;;;;;1999.90;999.90;;;;;;;;;;5052688;28;20028;-64
2023/11/19 18:11:56;;;;;;;1999.90;999.90;;;;;;;;;;5052289;28;20510;-66
2023/11/19 18:14:23;;;;;;;1999.90;999.90;;;;;;;;;;5052543;28;20413;-68
2023/11/19 18:16:50;;;;;;;1999.90;999.90;;;;;;;;;;5052518;28;20021;-68
2023/11/19 18:19:18;;;;;;;1999.90;999.90;;;;;;;;;;5052255;28;20473;-68
2023/11/19 18:21:44;;;;;;;1999.90;999.90;;;;;;;;;;5052048;28;20029;-65
2023/11/19 18:24:10;;;;;;;1999.90;999.90;;;;;;;;;;5051736;28;20131;-64
2023/11/19 18:26:36;;;;;;;1999.90;999.90;;;;;;;;;;5052290;28;20033;-68
2023/11/19 18:29:03;;;;;;;1999.90;999.90;;;;;;;;;;5052046;28;20522;-66
2023/11/19 18:31:30;;;;;;;1999.90;999.90;;;;;;;;;;5052124;28;20029;-70
2023/11/19 18:33:56;;;;;;;1999.90;999.90;;;;;;;;;;5052211;28;20032;-64
2023/11/19 18:36:22;;;;;;;1999.90;999.90;;;;;;;;;;5052174;28;20025;-69
2023/11/19 18:38:48;;;;;;;1999.90;999.90;;;;;;;;;;5052165;28;20032;-67
2023/11/19 18:41:14;;;;;;;1999.90;999.90;;;;;;;;;;5051664;28;20028;-70
2023/11/19 18:43:40;;;;;;;1999.90;999.90;;;;;;;;;;5051548;28;20477;-65
2023/11/19 18:46:08;;;;;;;1999.90;999.90;;;;;;;;;;5051958;28;20480;-66
2023/11/19 18:48:34;;;;;;;1999.90;999.90;;;;;;;;;;5044492;28;20025;-64
2023/11/19 18:51:01;;;;;;;1999.90;999.90;;;;;;;;;;5037531;28;20112;-64
2023/11/19 18:53:27;;;;;;;1999.90;999.90;;;;;;;;;;5031851;28;20493;-64
2023/11/19 18:55:53;;;;;;;1999.90;999.90;;;;;;;;;;5030485;28;20037;-64
2023/11/19 18:58:19;;;;;;;1999.90;999.90;;;;;;;;;;5048646;28;20048;-65
2023/11/19 19:00:45;;;;;;;1999.90;999.90;;;;;;;;;;5051648;28;20432;-66
2023/11/19 19:03:13;;;;;;;1999.90;999.90;;;;;;;;;;5049806;28;20094;-66
2023/11/19 19:05:39;;;;;;;1999.90;999.90;;;;;;;;;;5051659;28;20480;-69
2023/11/19 19:08:05;;;;;;;1999.90;999.90;;;;;;;;;;5051714;28;20049;-65
2023/11/19 19:10:31;;;;;;;1999.90;999.90;;;;;;;;;;5051244;28;20055;-64
2023/11/19 19:12:58;;;;;;;1999.90;999.90;;;;;;;;;;5051586;28;20516;-69
2023/11/19 19:15:25;;;;;;;1999.90;999.90;;;;;;;;;;5051450;28;20029;-66
2023/11/19 19:17:51;;;;;;;1999.90;999.90;;;;;;;;;;5051582;28;20100;-66
2023/11/19 19:20:18;;;;;;;1999.90;999.90;;;;;;;;;;5050647;28;20325;-66
2023/11/19 19:22:45;;;;;;;1999.90;999.90;;;;;;;;;;5050039;28;20036;-66
2023/11/19 19:25:11;;;;;;;1999.90;999.90;;;;;;;;;;5050919;28;20056;-69
2023/11/19 19:27:38;;;;;;;1999.90;999.90;;;;;;;;;;5051221;28;20043;-71
2023/11/19 19:30:04;;;;;;;1999.90;999.90;;;;;;;;;;5050875;28;20056;-67
2023/11/19 19:32:30;;;;;;;1999.90;999.90;;;;;;;;;;5051349;28;20021;-71
2023/11/19 19:34:57;;;;;;;1999.90;999.90;;;;;;;;;;5051281;28;20390;-69
2023/11/19 19:37:23;;;;;;;1999.90;999.90;;;;;;;;;;5051508;28;20021;-70
2023/11/19 19:39:49;;;;;;;1999.90;999.90;;;;;;;;;;5051272;28;20043;-66
2023/11/19 19:42:15;;;;;;;1999.90;999.90;;;;;;;;;;5039095;28;20029;-65
2023/11/19 19:44:41;;;;;;;1999.90;999.90;;;;;;;;;;5040850;28;20033;-65
2023/11/19 19:47:08;;;;;;;1999.90;999.90;;;;;;;;;;5039420;28;20049;-69
2023/11/19 19:49:34;;;;;;;1999.90;999.90;;;;;;;;;;5041413;28;20033;-63
2023/11/19 19:52:00;;;;;;;1999.90;999.90;;;;;;;;;;5040498;28;20454;-66
2023/11/19 19:54:26;;;;;;;1999.90;999.90;;;;;;;;;;5039375;28;20497;-73
2023/11/19 19:56:53;;;;;;;1999.90;999.90;;;;;;;;;;5049241;28;20376;-74
2023/11/19 19:59:19;;;;;;;1999.90;999.90;;;;;;;;;;5050291;28;20032;-73
2023/11/19 20:01:51;;;;;;;1999.90;999.90;;;;;;;;;;5050754;28;20025;-77
2023/11/19 20:04:17;;;;;;;1999.90;999.90;;;;;;;;;;5050945;28;20029;-77
2023/11/19 20:06:43;;;;;;;1999.90;999.90;;;;;;;;;;5049431;28;20052;-74
2023/11/19 20:09:13;;;;;;;1999.90;999.90;;;;;;;;;;5050671;28;20071;-74
2023/11/19 20:11:40;;;;;;;1999.90;999.90;;;;;;;;;;5050492;28;20027;-71
2023/11/19 20:14:06;;;;;;;1999.90;999.90;;;;;;;;;;5050535;28;20076;-76
2023/11/19 20:16:32;;;;;;;1999.90;999.90;;;;;;;;;;5050606;28;20028;-76
2023/11/19 20:18:59;;;;;;;1999.90;999.90;;;;;;;;;;5050308;28;20108;-73
2023/11/19 20:21:25;;;;;;;1999.90;999.90;;;;;;;;;;5050795;28;20021;-73
2023/11/19 20:23:51;;;;;;;1999.90;999.90;;;;;;;;;;5050692;28;20626;-72
2023/11/19 20:26:18;;;;;;;1999.90;999.90;;;;;;;;;;5050228;28;20110;-72
2023/11/19 20:28:45;;;;;;;1999.90;999.90;;;;;;;;;;5050651;28;20028;-78
2023/11/19 20:31:11;;;;;;;1999.90;999.90;;;;;;;;;;5050708;28;20113;-73
2023/11/19 20:33:38;;;;;;;1999.90;999.90;;;;;;;;;;5050440;28;20028;-75
2023/11/19 20:36:07;;;;;;;1999.90;999.90;;;;;;;;;;5050663;28;20040;-79
2023/11/19 20:38:33;;;;;;;1999.90;999.90;;;;;;;;;;5050456;28;20092;-81
2023/11/19 20:40:59;;;;;;;1999.90;999.90;;;;;;;;;;5050592;28;20377;-72
2023/11/19 20:43:26;;;;;;;1999.90;999.90;;;;;;;;;;5050236;28;20032;-71
2023/11/19 20:45:52;;;;;;;1999.90;999.90;;;;;;;;;;5046871;28;20123;-72
2023/11/19 20:48:18;;;;;;;1999.90;999.90;;;;;;;;;;5050312;28;20542;-72
2023/11/19 20:50:44;;;;;;;1999.90;999.90;;;;;;;;;;5050084;28;20559;-72
2023/11/19 20:53:10;;;;;;;1999.90;999.90;;;;;;;;;;5050517;28;20029;-69
2023/11/19 20:55:38;;;;;;;1999.90;999.90;;;;;;;;;;5050508;28;20028;-71
2023/11/19 20:58:08;;;;;;;1999.90;999.90;;;;;;;;;;5048498;28;20403;-72
2023/11/19 21:00:36;;;;;;;1999.90;999.90;;;;;;;;;;5050131;28;20510;-71
2023/11/19 21:03:03;;;;;;;1999.90;999.90;;;;;;;;;;5050018;28;20013;-73
2023/11/19 21:05:30;;;;;;;1999.90;999.90;;;;;;;;;;5050050;28;20119;-73
2023/11/19 21:07:56;;;;;;;1999.90;999.90;;;;;;;;;;5032207;28;20028;-78
2023/11/19 21:10:22;;;;;;;1999.90;999.90;;;;;;;;;;5049998;28;20033;-75
2023/11/19 21:12:49;;;;;;;1999.90;999.90;;;;;;;;;;5052939;28;20029;-75
2023/11/19 21:15:17;;;;;;;1999.90;999.90;;;;;;;;;;5053497;28;20024;-71
2023/11/19 21:17:43;;;;;;;1999.90;999.90;;;;;;;;;;5053980;28;20032;-72
2023/11/19 21:20:09;;;;;;;1999.90;999.90;;;;;;;;;;5053939;28;20035;-73
2023/11/19 21:22:35;;;;;;;1999.90;999.90;;;;;;;;;;5053782;28;20154;-71
2023/11/19 21:25:01;;;;;;;1999.90;999.90;;;;;;;;;;5053417;28;20048;-69
2023/11/19 21:27:29;;;;;;;1999.90;999.90;;;;;;;;;;5053504;28;20487;-70
2023/11/19 21:29:57;;;;;;;1999.90;999.90;;;;;;;;;;5053517;28;20139;-74
2023/11/19 21:32:23;;;;;;;1999.90;999.90;;;;;;;;;;5053520;28;20017;-76
2023/11/19 21:34:49;;;;;;;1999.90;999.90;;;;;;;;;;5053806;28;20033;-81
2023/11/19 21:37:15;;;;;;;1999.90;999.90;;;;;;;;;;5053944;28;20065;-78
2023/11/19 21:39:53;;;;;;;1999.90;999.90;;;;;;;;;;5052011;28;20025;-78
2023/11/19 21:42:19;;;;;;;1999.90;999.90;;;;;;;;;;5053870;28;20024;-85
2023/11/19 21:44:45;;;;;;;1999.90;999.90;;;;;;;;;;5053078;28;20025;-83
2023/11/19 21:47:12;;;;;;;1999.90;999.90;;;;;;;;;;5054753;28;20534;-84
2023/11/19 21:49:40;;;;;;;1999.90;999.90;;;;;;;;;;5052201;28;20022;-81
2023/11/19 21:52:06;;;;;;;1999.90;999.90;;;;;;;;;;5053089;28;20358;-80
2023/11/19 21:54:34;;;;;;;1999.90;999.90;;;;;;;;;;5053212;28;20041;-81
2023/11/19 21:57:18;;;;;;;1999.90;999.90;;;;;;;;;;5051662;28;20581;-82
2023/11/19 21:59:45;;;;;;;1999.90;999.90;;;;;;;;;;5052320;28;20542;-82
2023/11/19 22:02:11;;;;;;;1999.90;999.90;;;;;;;;;;5053173;28;20021;-80
